createdAt,value
2023-02-21T00:00:12.731Z,100181.37
2023-02-21T00:03:19.719Z,100179.66
2023-02-21T00:06:06.857Z,100182.27
2023-02-21T00:08:54.227Z,100179.50
2023-02-21T00:11:41.134Z,100179.59
2023-02-21T00:14:28.037Z,100179.82
2023-02-21T00:17:15.563Z,100177.31
2023-02-21T00:20:02.877Z,100188.83
2023-02-21T00:22:50.394Z,100176.92
2023-02-21T00:25:37.409Z,100175.83
2023-02-21T00:28:24.616Z,100168.27
2023-02-21T00:31:11.591Z,100163.77
2023-02-21T00:33:58.741Z,100161.73
2023-02-21T00:36:45.651Z,100156.01
2023-02-21T00:39:33.063Z,100146.61
2023-02-21T00:42:20.274Z,100145.88
2023-02-21T00:45:08.409Z,100138.40
2023-02-21T00:47:55.831Z,100134.05
2023-02-21T00:50:43.569Z,100136.57
2023-02-21T00:53:30.464Z,100130.30
2023-02-21T00:56:17.781Z,100126.42
2023-02-21T00:59:05.093Z,100132.67
2023-02-21T01:01:52.826Z,100125.09
2023-02-21T01:04:40.437Z,100117.98
2023-02-21T01:07:27.260Z,100110.91
2023-02-21T01:10:14.257Z,100112.94
2023-02-21T01:13:03.212Z,100105.56
2023-02-21T01:15:50.449Z,100102.98
2023-02-21T01:18:37.544Z,100095.29
2023-02-21T01:21:24.968Z,100096.56
2023-02-21T01:24:13.712Z,100097.48
2023-02-21T01:27:00.817Z,100101.73
2023-02-21T01:29:48.650Z,100101.30
2023-02-21T01:32:36.004Z,100107.11
2023-02-21T01:35:23.483Z,100108.55
2023-02-21T01:38:11.923Z,100109.21
2023-02-21T01:40:59.654Z,100104.41
2023-02-21T01:43:48.407Z,100101.78
2023-02-21T01:46:37.968Z,100096.65
2023-02-21T01:49:35.004Z,100099.64
2023-02-21T01:52:24.339Z,100101.65
2023-02-21T01:55:13.834Z,100097.08
2023-02-21T01:58:04.685Z,100101.48
2023-02-21T02:00:52.573Z,100099.42
2023-02-21T02:03:40.897Z,100089.70
2023-02-21T02:06:33.330Z,100088.48
2023-02-21T02:09:40.103Z,100081.49
2023-02-21T02:12:23.725Z,100081.72
2023-02-21T02:15:09.610Z,100077.90
2023-02-21T02:17:43.826Z,100073.33
2023-02-21T02:20:38.715Z,100068.30
2023-02-21T02:23:40.045Z,100066.76
2023-02-21T02:26:40.782Z,100068.56
2023-02-21T02:29:29.208Z,100072.10
2023-02-21T02:32:03.714Z,100068.47
2023-02-21T02:34:32.026Z,100060.48
2023-02-21T02:37:09.506Z,100059.73
2023-02-21T02:39:46.284Z,100056.71
2023-02-21T02:42:30.019Z,100055.17
2023-02-21T02:45:05.468Z,100057.88
2023-02-21T02:47:37.939Z,100055.02
2023-02-21T02:50:09.914Z,100050.63
2023-02-21T02:52:39.404Z,100050.48
2023-02-21T02:55:23.147Z,100055.42
2023-02-21T02:57:53.179Z,100054.48
2023-02-21T03:00:22.497Z,100053.64
2023-02-21T03:03:31.861Z,100049.81
2023-02-21T03:06:12.465Z,100046.98
2023-02-21T03:09:07.347Z,100046.84
2023-02-21T03:11:43.664Z,100053.04
2023-02-21T03:14:17.838Z,100053.64
2023-02-21T03:16:53.293Z,100051.46
2023-02-21T03:19:28.313Z,100052.42
2023-02-21T03:22:13.625Z,100051.32
2023-02-21T03:24:45.789Z,100049.11
2023-02-21T03:27:15.667Z,100052.30
2023-02-21T03:30:03.146Z,100054.96
2023-02-21T03:32:51.627Z,100054.66
2023-02-21T03:35:21.241Z,100050.15
2023-02-21T03:37:53.609Z,100052.68
2023-02-21T03:40:31.147Z,100052.58
2023-02-21T03:43:03.273Z,100053.83
2023-02-21T03:45:35.841Z,100057.06
2023-02-21T03:48:20.252Z,100063.85
2023-02-21T03:50:55.470Z,100058.08
2023-02-21T03:53:24.662Z,100056.80
2023-02-21T03:55:53.242Z,100050.59
2023-02-21T03:58:26.455Z,100052.17
2023-02-21T04:00:55.072Z,100045.95
2023-02-21T04:03:24.129Z,100040.75
2023-02-21T04:05:56.717Z,100033.83
2023-02-21T04:08:25.797Z,100040.30
2023-02-21T04:10:54.199Z,100039.91
2023-02-21T04:13:25.355Z,100038.07
2023-02-21T04:15:54.548Z,100040.38
2023-02-21T04:18:24.158Z,100032.19
2023-02-21T04:20:54.180Z,100028.69
2023-02-21T04:23:26.351Z,100030.03
2023-02-21T04:25:56.984Z,100036.48
2023-02-21T04:28:34.890Z,100027.66
2023-02-21T04:31:03.614Z,100025.56
2023-02-21T04:33:32.585Z,100021.41
2023-02-21T04:36:01.595Z,100021.30
2023-02-21T04:38:39.781Z,100018.36
2023-02-21T04:41:08.377Z,100017.56
2023-02-21T04:43:38.302Z,100013.83
2023-02-21T04:46:06.941Z,100014.48
2023-02-21T04:48:35.676Z,100002.49
2023-02-21T04:51:15.186Z,100002.67
2023-02-21T04:53:46.239Z,100003.88
2023-02-21T04:56:15.580Z,100002.58
2023-02-21T04:58:45.659Z,100003.04
2023-02-21T05:01:17.105Z,100004.26
2023-02-21T05:03:46.047Z,100004.47
2023-02-21T05:06:19.442Z,100001.98
2023-02-21T05:08:48.432Z,100003.27
2023-02-21T05:11:18.110Z,100008.61
2023-02-21T05:13:47.253Z,100003.21
2023-02-21T05:16:15.757Z,100000.98
2023-02-21T05:18:45.837Z,100000.86
2023-02-21T05:21:16.525Z,100001.02
2023-02-21T05:23:55.914Z,100008.14
2023-02-21T05:26:27.707Z,100010.20
2023-02-21T05:28:57.096Z,100014.77
2023-02-21T05:31:28.321Z,100014.10
2023-02-21T05:33:57.533Z,100017.33
2023-02-21T05:36:26.160Z,100027.86
2023-02-21T05:38:56.278Z,100028.63
2023-02-21T05:41:25.164Z,100033.42
2023-02-21T05:43:53.962Z,100034.10
2023-02-21T05:46:28.690Z,100027.86
2023-02-21T05:49:00.037Z,100025.64
2023-02-21T05:51:34.978Z,100035.25
2023-02-21T05:54:04.689Z,100039.85
2023-02-21T05:56:39.576Z,100045.44
2023-02-21T05:59:09.299Z,100046.05
2023-02-21T06:01:37.932Z,100043.21
2023-02-21T06:04:07.831Z,100043.80
2023-02-21T06:06:36.753Z,100045.16
2023-02-21T06:09:06.375Z,100052.30
2023-02-21T06:11:37.933Z,100049.02
2023-02-21T06:14:14.857Z,100049.73
2023-02-21T06:16:43.268Z,100052.98
2023-02-21T06:19:12.997Z,100053.73
2023-02-21T06:21:42.267Z,100055.55
2023-02-21T06:24:12.383Z,100049.55
2023-02-21T06:26:42.532Z,100055.85
2023-02-21T06:29:12.078Z,100055.71
2023-02-21T06:31:40.647Z,100060.11
2023-02-21T06:34:09.339Z,100052.73
2023-02-21T06:36:39.357Z,100053.39
2023-02-21T06:39:08.455Z,100049.53
2023-02-21T06:41:36.737Z,100047.75
2023-02-21T06:44:05.692Z,100046.02
2023-02-21T06:46:36.655Z,100049.07
2023-02-21T06:49:05.581Z,100047.65
2023-02-21T06:51:38.625Z,100046.41
2023-02-21T06:54:10.797Z,100045.17
2023-02-21T06:56:39.119Z,100045.08
2023-02-21T06:59:07.611Z,100045.41
2023-02-21T07:01:36.316Z,100046.42
2023-02-21T07:04:05.006Z,100044.66
2023-02-21T07:06:33.746Z,100041.73
2023-02-21T07:09:02.171Z,100039.66
2023-02-21T07:11:33.563Z,100041.10
2023-02-21T07:14:02.463Z,100040.45
2023-02-21T07:16:30.803Z,100042.02
2023-02-21T07:18:59.286Z,100040.80
2023-02-21T07:21:29.205Z,100035.31
2023-02-21T07:23:57.488Z,100033.14
2023-02-21T07:26:25.672Z,100033.36
2023-02-21T07:28:55.016Z,100034.19
2023-02-21T07:31:23.844Z,100037.52
2023-02-21T07:33:52.247Z,100030.84
2023-02-21T07:36:20.844Z,100030.82
2023-02-21T07:38:49.534Z,100030.15
2023-02-21T07:41:19.347Z,100025.86
2023-02-21T07:43:48.252Z,100029.56
2023-02-21T07:46:18.479Z,100027.56
2023-02-21T07:48:47.787Z,100019.40
2023-02-21T07:51:16.413Z,100021.09
2023-02-21T07:53:45.269Z,100025.95
2023-02-21T07:56:13.751Z,100028.07
2023-02-21T07:58:42.045Z,100022.52
2023-02-21T08:01:11.334Z,100027.05
2023-02-21T08:03:41.046Z,100020.66
2023-02-21T08:06:11.335Z,100017.20
2023-02-21T08:08:39.504Z,100016.60
2023-02-21T08:11:07.836Z,100014.58
2023-02-21T08:13:36.221Z,100012.95
2023-02-21T08:16:04.767Z,100009.45
2023-02-21T08:18:33.094Z,100009.72
2023-02-21T08:21:01.371Z,100008.48
2023-02-21T08:23:29.651Z,100004.77
2023-02-21T08:25:58.037Z,99998.83
2023-02-21T08:28:26.930Z,100002.02
2023-02-21T08:30:55.732Z,99988.95
2023-02-21T08:33:24.416Z,99986.75
2023-02-21T08:35:52.603Z,99986.54
2023-02-21T08:38:21.819Z,99985.48
2023-02-21T08:40:51.639Z,99982.08
2023-02-21T08:43:20.007Z,99981.98
2023-02-21T08:45:48.181Z,99981.83
2023-02-21T08:48:17.046Z,99978.36
2023-02-21T08:50:45.610Z,99983.31
2023-02-21T08:53:15.485Z,99977.11
2023-02-21T08:55:44.283Z,99973.35
2023-02-21T08:58:13.244Z,99975.64
2023-02-21T09:00:41.608Z,99978.14
2023-02-21T09:03:09.943Z,99975.94
2023-02-21T09:05:39.473Z,99971.81
2023-02-21T09:08:10.594Z,99978.56
2023-02-21T09:10:47.844Z,99972.96
2023-02-21T09:13:16.687Z,99972.36
2023-02-21T09:15:46.218Z,99975.83
2023-02-21T09:18:14.474Z,99978.19
2023-02-21T09:20:43.070Z,99971.61
2023-02-21T09:23:11.967Z,99967.21
2023-02-21T09:25:40.240Z,99961.23
2023-02-21T09:28:08.525Z,99964.77
2023-02-21T09:30:36.851Z,99952.26
2023-02-21T09:33:05.408Z,99947.92
2023-02-21T09:35:33.891Z,99946.74
2023-02-21T09:38:03.183Z,99958.59
2023-02-21T09:40:34.854Z,99955.33
2023-02-21T09:43:05.899Z,99945.23
2023-02-21T09:45:37.063Z,99962.70
2023-02-21T09:48:11.774Z,99949.29
2023-02-21T09:50:53.360Z,99950.42
2023-02-21T09:53:32.174Z,99952.77
2023-02-21T09:56:18.376Z,99941.06
2023-02-21T09:58:49.507Z,99954.77
2023-02-21T10:01:44.093Z,99950.90
2023-02-21T10:04:22.640Z,99947.31
2023-02-21T10:07:04.194Z,99937.06
2023-02-21T10:09:54.278Z,99935.64
2023-02-21T10:12:30.945Z,99931.27
2023-02-21T10:15:20.530Z,99938.54
2023-02-21T10:18:13.481Z,99932.59
2023-02-21T10:20:50.138Z,99932.81
2023-02-21T10:23:30.001Z,99930.25
2023-02-21T10:26:07.570Z,99920.14
2023-02-21T10:28:37.249Z,99920.10
2023-02-21T10:31:12.879Z,99904.36
2023-02-21T10:33:41.635Z,99904.41
2023-02-21T10:36:19.224Z,99901.14
2023-02-21T10:39:15.451Z,99905.83
2023-02-21T10:41:44.644Z,99901.65
2023-02-21T10:44:16.320Z,99893.10
2023-02-21T10:46:52.467Z,99898.76
2023-02-21T10:49:24.954Z,99892.48
2023-02-21T10:52:07.069Z,99888.89
2023-02-21T10:54:36.454Z,99887.52
2023-02-21T10:57:08.872Z,99885.39
2023-02-21T10:59:41.411Z,99878.45
2023-02-21T11:02:34.672Z,99875.60
2023-02-21T11:05:17.673Z,99875.09
2023-02-21T11:08:06.428Z,99880.43
2023-02-21T11:10:42.392Z,99872.20
2023-02-21T11:13:16.505Z,99858.47
2023-02-21T11:15:46.296Z,99850.88
2023-02-21T11:18:25.954Z,99849.48
2023-02-21T11:20:54.641Z,99847.41
2023-02-21T11:23:27.394Z,99839.23
2023-02-21T11:26:09.514Z,99835.27
2023-02-21T11:28:45.380Z,99832.27
2023-02-21T11:31:32.563Z,99837.17
2023-02-21T11:34:10.407Z,99830.92
2023-02-21T11:36:47.310Z,99831.70
2023-02-21T11:39:32.959Z,99818.42
2023-02-21T11:42:04.374Z,99818.37
2023-02-21T11:44:38.133Z,99824.34
2023-02-21T11:47:28.601Z,99828.05
2023-02-21T11:50:13.147Z,99836.33
2023-02-21T11:52:51.879Z,99831.13
2023-02-21T11:55:26.153Z,99846.67
2023-02-21T11:58:13.716Z,99838.49
2023-02-21T12:01:06.491Z,99840.52
2023-02-21T12:04:14.952Z,99842.17
2023-02-21T12:07:17.351Z,99843.20
2023-02-21T12:10:31.514Z,99835.88
2023-02-21T12:13:20.874Z,99829.09
2023-02-21T12:15:49.226Z,99834.02
2023-02-21T12:18:29.645Z,99841.46
2023-02-21T12:21:07.848Z,99841.56
2023-02-21T12:23:41.889Z,99840.84
2023-02-21T12:26:30.204Z,99847.91
2023-02-21T12:29:04.214Z,99841.48
2023-02-21T12:31:59.861Z,99829.33
2023-02-21T12:34:57.386Z,99833.23
2023-02-21T12:38:04.596Z,99846.83
2023-02-21T12:41:01.532Z,99840.56
2023-02-21T12:43:49.413Z,99837.45
2023-02-21T12:46:53.104Z,99842.36
2023-02-21T12:49:26.161Z,99846.42
2023-02-21T12:52:14.840Z,99860.61
2023-02-21T12:54:54.826Z,99884.92
2023-02-21T12:57:31.561Z,99879.65
2023-02-21T13:00:08.140Z,99878.27
2023-02-21T13:03:10.630Z,99886.37
2023-02-21T13:06:01.602Z,99882.08
2023-02-21T13:08:36.529Z,99891.55
2023-02-21T13:11:17.167Z,99898.21
2023-02-21T13:13:45.776Z,99899.88
2023-02-21T13:16:15.098Z,99902.53
2023-02-21T13:18:50.219Z,99899.63
2023-02-21T13:21:37.948Z,99895.37
2023-02-21T13:24:43.782Z,99905.21
2023-02-21T13:27:36.021Z,99907.80
2023-02-21T13:30:32.749Z,99919.05
2023-02-21T13:33:01.640Z,99911.51
2023-02-21T13:35:38.013Z,99913.10
2023-02-21T13:38:10.897Z,99918.48
2023-02-21T13:40:42.351Z,99929.55
2023-02-21T13:43:16.568Z,99928.11
2023-02-21T13:45:45.878Z,99940.25
2023-02-21T13:48:24.006Z,99955.46
2023-02-21T13:51:00.864Z,99960.95
2023-02-21T13:53:53.296Z,99976.87
2023-02-21T13:56:40.954Z,99984.23
2023-02-21T13:59:25.273Z,99997.80
2023-02-21T14:02:17.497Z,100004.87
2023-02-21T14:05:00.470Z,100004.67
2023-02-21T14:07:46.334Z,100017.36
2023-02-21T14:10:31.963Z,100042.76
2023-02-21T14:13:24.301Z,100082.54
2023-02-21T14:16:09.488Z,100094.08
2023-02-21T14:18:52.172Z,100107.51
2023-02-21T14:21:45.631Z,100120.40
2023-02-21T14:24:24.442Z,100116.53
2023-02-21T14:26:52.771Z,100118.27
2023-02-21T14:29:40.119Z,100126.22
2023-02-21T14:32:08.566Z,100131.27
2023-02-21T14:34:56.534Z,100135.48
2023-02-21T14:37:30.489Z,100151.79
2023-02-21T14:40:18.219Z,100161.10
2023-02-21T14:42:52.944Z,100165.20
2023-02-21T14:45:40.696Z,100186.13
2023-02-21T14:48:34.834Z,100193.42
2023-02-21T14:51:29.313Z,100191.77
2023-02-21T14:54:19.698Z,100193.36
2023-02-21T14:56:59.266Z,100195.29
2023-02-21T15:00:02.822Z,100197.22
2023-02-21T15:03:13.063Z,100206.78
2023-02-21T15:05:50.360Z,100208.48
2023-02-21T15:08:23.797Z,100231.83
2023-02-21T15:10:58.273Z,100233.90
2023-02-21T15:13:29.313Z,100238.41
2023-02-21T15:16:00.873Z,100234.94
2023-02-21T15:18:34.999Z,100241.13
2023-02-21T15:21:11.768Z,100235.81
2023-02-21T15:23:43.321Z,100240.51
2023-02-21T15:26:18.556Z,100243.69
2023-02-21T15:28:47.040Z,100265.83
2023-02-21T15:31:18.447Z,100279.01
2023-02-21T15:33:46.984Z,100282.17
2023-02-21T15:36:20.800Z,100288.89
2023-02-21T15:38:55.009Z,100286.61
2023-02-21T15:41:46.093Z,100291.21
2023-02-21T15:44:14.506Z,100296.81
2023-02-21T15:46:51.386Z,100300.78
2023-02-21T15:49:28.161Z,100304.81
2023-02-21T15:51:56.534Z,100305.29
2023-02-21T15:54:29.017Z,100307.69
2023-02-21T15:57:10.700Z,100299.86
2023-02-21T15:59:40.293Z,100298.87
2023-02-21T16:02:11.607Z,100300.28
2023-02-21T16:04:41.488Z,100299.57
2023-02-21T16:07:35.605Z,100307.15
2023-02-21T16:10:08.227Z,100311.37
2023-02-21T16:12:40.096Z,100317.54
2023-02-21T16:15:33.973Z,100318.71
2023-02-21T16:18:09.720Z,100314.29
2023-02-21T16:20:42.807Z,100315.27
2023-02-21T16:23:19.997Z,100318.10
2023-02-21T16:26:07.215Z,100325.61
2023-02-21T16:28:37.484Z,100329.40
2023-02-21T16:31:14.654Z,100338.20
2023-02-21T16:33:43.719Z,100341.92
2023-02-21T16:36:22.141Z,100344.56
2023-02-21T16:38:51.034Z,100350.89
2023-02-21T16:41:19.630Z,100353.64
2023-02-21T16:43:48.516Z,100353.47
2023-02-21T16:46:24.702Z,100365.78
2023-02-21T16:48:54.511Z,100371.98
2023-02-21T16:51:23.091Z,100378.76
2023-02-21T16:53:51.566Z,100382.49
2023-02-21T16:56:19.863Z,100390.32
2023-02-21T16:58:54.480Z,100395.38
2023-02-21T17:01:29.690Z,100396.59
2023-02-21T17:03:58.220Z,100402.38
2023-02-21T17:06:27.911Z,100401.45
2023-02-21T17:09:13.423Z,100408.66
2023-02-21T17:11:48.461Z,100409.91
2023-02-21T17:14:16.918Z,100421.27
2023-02-21T17:16:46.124Z,100420.54
2023-02-21T17:19:17.477Z,100428.39
2023-02-21T17:21:46.167Z,100434.29
2023-02-21T17:24:15.369Z,100437.36
2023-02-21T17:26:44.262Z,100437.23
2023-02-21T17:29:12.745Z,100444.77
2023-02-21T17:31:41.128Z,100443.25
2023-02-21T17:34:09.415Z,100449.91
2023-02-21T17:36:38.120Z,100464.71
2023-02-21T17:39:07.070Z,100464.88
2023-02-21T17:41:35.595Z,100464.95
2023-02-21T17:44:04.180Z,100460.20
2023-02-21T17:46:33.435Z,100457.71
2023-02-21T17:49:01.668Z,100460.42
2023-02-21T17:51:30.253Z,100460.17
2023-02-21T17:53:58.540Z,100455.75
2023-02-21T17:56:28.269Z,100446.98
2023-02-21T17:58:57.554Z,100438.38
2023-02-21T18:01:26.161Z,100439.95
2023-02-21T18:03:54.533Z,100440.02
2023-02-21T18:06:22.933Z,100442.66
2023-02-21T18:08:51.296Z,100449.93
2023-02-21T18:11:20.302Z,100457.84
2023-02-21T18:13:48.891Z,100462.66
2023-02-21T18:16:18.323Z,100464.79
2023-02-21T18:18:46.675Z,100469.32
2023-02-21T18:21:16.031Z,100475.56
2023-02-21T18:23:46.215Z,100476.20
2023-02-21T18:26:15.593Z,100474.97
2023-02-21T18:28:44.011Z,100478.06
2023-02-21T18:31:16.521Z,100480.89
2023-02-21T18:33:46.371Z,100483.73
2023-02-21T18:36:14.588Z,100489.05
2023-02-21T18:38:43.086Z,100488.10
2023-02-21T18:41:17.389Z,100487.53
2023-02-21T18:43:46.567Z,100497.66
2023-02-21T18:46:17.770Z,100497.06
2023-02-21T18:48:49.197Z,100496.94
2023-02-21T18:51:20.467Z,100496.02
2023-02-21T18:53:49.449Z,100498.36
2023-02-21T18:56:19.554Z,100491.42
2023-02-21T18:58:49.671Z,100490.15
2023-02-21T19:01:22.010Z,100489.20
2023-02-21T19:03:51.459Z,100489.06
2023-02-21T19:06:21.492Z,100490.09
2023-02-21T19:08:50.707Z,100493.67
2023-02-21T19:11:18.977Z,100496.35
2023-02-21T19:13:50.135Z,100500.45
2023-02-21T19:16:20.293Z,100506.08
2023-02-21T19:18:51.604Z,100512.52
2023-02-21T19:21:22.069Z,100521.25
2023-02-21T19:23:50.888Z,100522.41
2023-02-21T19:26:19.628Z,100526.31
2023-02-21T19:28:48.105Z,100533.54
2023-02-21T19:31:20.727Z,100544.02
2023-02-21T19:33:49.276Z,100542.31
2023-02-21T19:36:19.862Z,100544.70
2023-02-21T19:38:48.886Z,100543.62
2023-02-21T19:41:18.788Z,100544.09
2023-02-21T19:43:47.639Z,100545.95
2023-02-21T19:46:25.234Z,100545.52
2023-02-21T19:48:54.212Z,100548.05
2023-02-21T19:51:24.831Z,100552.05
2023-02-21T19:53:53.343Z,100551.74
2023-02-21T19:56:22.412Z,100553.33
2023-02-21T19:58:51.741Z,100559.60
2023-02-21T20:01:21.732Z,100556.59
2023-02-21T20:03:50.760Z,100560.89
2023-02-21T20:06:19.596Z,100564.17
2023-02-21T20:08:48.890Z,100564.92
2023-02-21T20:11:20.733Z,100567.73
2023-02-21T20:13:49.869Z,100568.02
2023-02-21T20:16:20.507Z,100571.50
2023-02-21T20:18:52.034Z,100573.02
2023-02-21T20:21:30.854Z,100580.84
2023-02-21T20:24:00.181Z,100589.42
2023-02-21T20:26:29.590Z,100585.55
2023-02-21T20:28:58.150Z,100586.12
2023-02-21T20:31:30.196Z,100591.92
2023-02-21T20:34:03.172Z,100596.15
2023-02-21T20:36:37.850Z,100596.48
2023-02-21T20:39:09.556Z,100605.45
2023-02-21T20:41:40.940Z,100604.48
2023-02-21T20:44:09.912Z,100605.34
2023-02-21T20:46:38.733Z,100608.69
2023-02-21T20:49:07.651Z,100617.95
2023-02-21T20:51:39.083Z,100620.98
2023-02-21T20:54:11.188Z,100620.52
2023-02-21T20:56:42.306Z,100623.13
2023-02-21T20:59:16.334Z,100626.17
2023-02-21T21:01:48.460Z,100631.08
2023-02-21T21:04:23.036Z,100634.58
2023-02-21T21:06:51.291Z,100641.09
2023-02-21T21:09:28.925Z,100646.08
2023-02-21T21:12:00.977Z,100647.35
2023-02-21T21:14:31.701Z,100648.64
2023-02-21T21:17:00.899Z,100644.54
2023-02-21T21:19:37.259Z,100654.06
2023-02-21T21:22:09.213Z,100657.03
2023-02-21T21:24:38.511Z,100663.89
2023-02-21T21:27:10.298Z,100671.00
2023-02-21T21:29:43.685Z,100667.09
2023-02-21T21:32:15.394Z,100655.79
2023-02-21T21:34:46.755Z,100659.16
2023-02-21T21:37:17.237Z,100646.60
2023-02-21T21:39:54.526Z,100645.57
2023-02-21T21:42:28.345Z,100650.22
2023-02-21T21:44:57.740Z,100659.08
2023-02-21T21:47:34.207Z,100661.34
2023-02-21T21:50:05.141Z,100664.77
2023-02-21T21:52:34.348Z,100671.36
2023-02-21T21:55:03.250Z,100674.44
2023-02-21T21:57:33.269Z,100673.60
2023-02-21T22:00:01.958Z,100675.25
2023-02-21T22:02:30.495Z,100671.70
2023-02-21T22:04:58.731Z,100671.72
2023-02-21T22:07:26.915Z,100677.11
2023-02-21T22:09:55.506Z,100673.84
2023-02-21T22:12:23.684Z,100675.41
2023-02-21T22:14:52.070Z,100683.03
2023-02-21T22:17:20.550Z,100683.91
2023-02-21T22:19:48.937Z,100691.73
2023-02-21T22:22:18.035Z,100692.15
2023-02-21T22:24:46.533Z,100691.59
2023-02-21T22:27:15.315Z,100689.69
2023-02-21T22:29:43.693Z,100696.66
2023-02-21T22:32:12.301Z,100703.42
2023-02-21T22:34:40.664Z,100703.95
2023-02-21T22:37:10.491Z,100708.09
2023-02-21T22:39:39.179Z,100707.79
2023-02-21T22:42:09.007Z,100708.85
2023-02-21T22:44:37.786Z,100711.98
2023-02-21T22:47:06.474Z,100714.84
2023-02-21T22:49:35.267Z,100717.73
2023-02-21T22:52:04.385Z,100726.14
2023-02-21T22:54:32.761Z,100720.52
2023-02-21T22:57:02.994Z,100719.67
2023-02-21T22:59:34.381Z,100722.92
2023-02-21T23:02:03.347Z,100732.01
2023-02-21T23:04:37.503Z,100736.60
2023-02-21T23:07:06.559Z,100736.38
2023-02-21T23:09:37.384Z,100735.89
2023-02-21T23:12:06.386Z,100738.67
2023-02-21T23:14:35.287Z,100747.27
2023-02-21T23:17:03.982Z,100748.27
2023-02-21T23:19:32.555Z,100746.59
2023-02-21T23:22:01.537Z,100746.22
2023-02-21T23:24:29.942Z,100744.80
2023-02-21T23:26:58.256Z,100747.69
2023-02-21T23:29:26.705Z,100753.25
2023-02-21T23:32:09.736Z,100748.59
2023-02-21T23:34:41.457Z,100748.77
2023-02-21T23:37:15.420Z,100748.77
2023-02-21T23:39:46.873Z,100756.36
2023-02-21T23:42:17.679Z,100760.00
2023-02-21T23:44:48.641Z,100760.46
2023-02-21T23:47:17.335Z,100760.09
2023-02-21T23:49:46.029Z,100758.27
2023-02-21T23:52:16.071Z,100762.17
2023-02-21T23:54:44.439Z,100768.34
2023-02-21T23:57:12.611Z,100771.68
2023-02-21T23:59:41.813Z,100771.23
